createdAt,value
2017-12-15T00:00:57.086Z,0
2017-12-15T00:01:58.960Z,0
2017-12-15T00:03:00.865Z,0
2017-12-15T00:04:02.723Z,0
2017-12-15T00:05:04.662Z,0
2017-12-15T00:06:06.497Z,0
2017-12-15T00:07:08.380Z,0
2017-12-15T00:08:10.260Z,0
2017-12-15T00:09:12.104Z,0
2017-12-15T00:10:13.986Z,0
2017-12-15T00:11:15.920Z,0
2017-12-15T00:12:17.818Z,0
2017-12-15T00:13:19.692Z,0
2017-12-15T00:14:21.586Z,0
2017-12-15T00:15:23.458Z,0
2017-12-15T00:16:25.392Z,0
2017-12-15T00:17:27.318Z,0
2017-12-15T00:18:29.078Z,0
2017-12-15T00:19:30.799Z,0
2017-12-15T00:20:32.513Z,0
2017-12-15T00:21:34.233Z,0
2017-12-15T00:22:35.944Z,0
2017-12-15T00:23:37.683Z,0
2017-12-15T00:24:39.353Z,0
2017-12-15T00:25:41.030Z,0
2017-12-15T00:26:42.730Z,0
2017-12-15T00:27:44.382Z,0
2017-12-15T00:28:46.072Z,0
2017-12-15T00:29:47.752Z,0
2017-12-15T00:30:49.410Z,0
2017-12-15T00:31:51.101Z,0
2017-12-15T00:32:52.916Z,0
2017-12-15T00:33:54.741Z,0
2017-12-15T00:34:56.360Z,0
2017-12-15T00:35:58.036Z,0
2017-12-15T00:36:59.745Z,0
2017-12-15T00:38:01.442Z,0
2017-12-15T00:39:03.168Z,0
2017-12-15T00:40:04.826Z,0
2017-12-15T00:41:06.547Z,0
2017-12-15T00:42:08.243Z,0
2017-12-15T00:43:09.913Z,0
2017-12-15T00:44:11.630Z,0
2017-12-15T00:45:13.360Z,0
2017-12-15T00:46:15.044Z,0
2017-12-15T00:47:16.706Z,0
2017-12-15T00:48:18.457Z,0
2017-12-15T00:49:20.182Z,0
2017-12-15T00:50:21.861Z,0
2017-12-15T00:51:23.582Z,0
2017-12-15T00:52:25.299Z,0
2017-12-15T00:53:27.007Z,0
2017-12-15T00:54:28.731Z,0
2017-12-15T00:55:30.444Z,0
2017-12-15T00:56:32.121Z,0
2017-12-15T00:57:33.905Z,0
2017-12-15T00:58:35.648Z,0
2017-12-15T00:59:37.373Z,0
2017-12-15T01:00:39.059Z,0
2017-12-15T01:01:40.798Z,0
2017-12-15T01:02:42.489Z,0
2017-12-15T01:03:44.200Z,0
2017-12-15T01:04:45.940Z,0
2017-12-15T01:05:47.631Z,0
2017-12-15T01:06:49.324Z,0
2017-12-15T01:07:50.992Z,0
2017-12-15T01:08:52.659Z,0
2017-12-15T01:09:54.394Z,0
2017-12-15T01:10:56.086Z,0
2017-12-15T01:11:57.809Z,0
2017-12-15T01:12:59.523Z,0
2017-12-15T01:14:01.247Z,0
2017-12-15T01:15:02.972Z,0
2017-12-15T01:16:04.632Z,0
2017-12-15T01:17:06.318Z,0
2017-12-15T01:18:08.006Z,0
2017-12-15T01:19:09.676Z,0
2017-12-15T01:20:11.366Z,0
2017-12-15T01:21:13.076Z,0
2017-12-15T01:22:14.783Z,0
2017-12-15T01:23:16.448Z,0
2017-12-15T01:24:18.134Z,0
2017-12-15T01:25:19.820Z,0
2017-12-15T01:26:21.509Z,0
2017-12-15T01:27:23.214Z,0
2017-12-15T01:28:24.923Z,0
2017-12-15T01:29:26.592Z,0
2017-12-15T01:30:28.291Z,0
2017-12-15T01:31:30.005Z,0
2017-12-15T01:32:31.737Z,0
2017-12-15T01:33:33.387Z,0
2017-12-15T01:34:35.043Z,0
2017-12-15T01:35:36.693Z,0
2017-12-15T01:36:38.398Z,0
2017-12-15T01:37:40.132Z,0
2017-12-15T01:38:41.808Z,0
2017-12-15T01:39:43.506Z,0
2017-12-15T01:40:45.185Z,0
2017-12-15T01:41:46.853Z,0
2017-12-15T01:42:48.555Z,0
2017-12-15T01:43:50.249Z,0
2017-12-15T01:44:51.949Z,0
2017-12-15T01:45:53.785Z,0
2017-12-15T01:46:55.509Z,0
2017-12-15T01:47:57.208Z,0
2017-12-15T01:48:58.926Z,0
2017-12-15T01:50:00.600Z,0
2017-12-15T01:51:02.261Z,0
2017-12-15T01:52:03.926Z,0
2017-12-15T01:53:05.602Z,0
2017-12-15T01:54:07.249Z,0
2017-12-15T01:55:08.937Z,0
2017-12-15T01:56:10.671Z,0
2017-12-15T01:57:12.398Z,0
2017-12-15T01:58:14.141Z,0
2017-12-15T01:59:15.902Z,0
2017-12-15T02:00:17.620Z,0
2017-12-15T02:01:19.329Z,0
2017-12-15T02:02:21.172Z,0
2017-12-15T02:03:22.965Z,0
2017-12-15T02:04:24.684Z,0
2017-12-15T02:05:26.467Z,0
2017-12-15T02:06:28.205Z,0
2017-12-15T02:07:29.985Z,0
2017-12-15T02:08:31.763Z,0
2017-12-15T02:09:33.537Z,0
2017-12-15T02:10:35.329Z,0
2017-12-15T02:11:37.030Z,0
2017-12-15T02:12:38.773Z,0
2017-12-15T02:13:40.532Z,0
2017-12-15T02:14:42.299Z,0
2017-12-15T02:15:44.035Z,0
2017-12-15T02:16:45.802Z,0
2017-12-15T02:17:47.558Z,0
2017-12-15T02:18:49.321Z,0
2017-12-15T02:19:51.054Z,0
2017-12-15T02:20:52.787Z,0
2017-12-15T02:21:54.467Z,0
2017-12-15T02:22:56.182Z,0
2017-12-15T02:23:57.924Z,0
2017-12-15T02:24:59.736Z,0
2017-12-15T02:26:01.486Z,0
2017-12-15T02:27:03.246Z,0
2017-12-15T02:28:05.002Z,0
2017-12-15T02:29:06.759Z,0
2017-12-15T02:30:08.499Z,0
2017-12-15T02:31:10.240Z,0
2017-12-15T02:32:11.990Z,0
2017-12-15T02:33:13.701Z,0
2017-12-15T02:34:15.468Z,0
2017-12-15T02:35:17.185Z,0
2017-12-15T02:36:18.946Z,0
2017-12-15T02:37:20.643Z,0
2017-12-15T02:38:22.447Z,0
2017-12-15T02:39:24.227Z,0
2017-12-15T02:40:25.957Z,0
2017-12-15T02:41:27.749Z,0
2017-12-15T02:42:29.567Z,0
2017-12-15T02:43:31.320Z,0
2017-12-15T02:44:33.068Z,0
2017-12-15T02:45:34.839Z,0
2017-12-15T02:46:36.581Z,0
2017-12-15T02:47:38.307Z,0
2017-12-15T02:48:40.034Z,0
2017-12-15T02:49:41.803Z,0
2017-12-15T02:50:43.468Z,0
2017-12-15T02:51:45.163Z,0
2017-12-15T02:52:46.896Z,0
2017-12-15T02:53:48.608Z,0
2017-12-15T02:54:50.282Z,0
2017-12-15T03:01:06.265Z,0
2017-12-15T03:02:07.932Z,0
2017-12-15T03:03:09.568Z,0
2017-12-15T03:04:11.208Z,0
2017-12-15T03:05:12.851Z,0
2017-12-15T03:06:14.497Z,0
2017-12-15T03:07:16.204Z,0
2017-12-15T03:08:17.797Z,0
2017-12-15T03:09:19.433Z,0
2017-12-15T03:10:21.076Z,0
2017-12-15T03:11:22.726Z,0
2017-12-15T03:12:24.364Z,0
2017-12-15T03:13:26.011Z,0
2017-12-15T03:14:27.648Z,0
2017-12-15T03:15:29.293Z,0
2017-12-15T03:16:30.933Z,0
2017-12-15T03:17:32.595Z,0
2017-12-15T03:18:34.240Z,0
2017-12-15T03:19:35.887Z,0
2017-12-15T03:20:37.530Z,0
2017-12-15T03:21:39.180Z,0
2017-12-15T03:22:40.827Z,0
2017-12-15T03:23:42.472Z,0
2017-12-15T03:24:44.131Z,0
2017-12-15T03:25:45.764Z,0
2017-12-15T03:26:47.413Z,0
2017-12-15T03:27:49.061Z,0
2017-12-15T03:28:50.699Z,0
2017-12-15T03:29:52.347Z,0
2017-12-15T03:30:53.983Z,0
2017-12-15T03:31:56.370Z,0
2017-12-15T03:32:58.009Z,0
2017-12-15T03:33:59.653Z,0
2017-12-15T03:35:01.301Z,0
2017-12-15T03:36:02.949Z,0
2017-12-15T03:37:04.610Z,0
2017-12-15T03:38:06.244Z,0
2017-12-15T03:39:07.893Z,0
2017-12-15T03:40:09.539Z,0
2017-12-15T03:41:11.178Z,0
2017-12-15T03:42:12.830Z,0
2017-12-15T03:43:14.474Z,0
2017-12-15T03:44:16.121Z,0
2017-12-15T03:45:17.766Z,0
2017-12-15T03:46:19.433Z,0
2017-12-15T03:47:21.085Z,0
2017-12-15T03:48:22.739Z,0
2017-12-15T03:49:24.383Z,0
2017-12-15T03:50:26.027Z,0
2017-12-15T03:51:27.680Z,0
2017-12-15T03:52:29.327Z,0
2017-12-15T03:53:30.975Z,0
2017-12-15T03:54:32.623Z,0
2017-12-15T03:55:34.266Z,0
2017-12-15T03:56:35.914Z,0
2017-12-15T03:57:37.564Z,0
2017-12-15T03:58:39.214Z,0
2017-12-15T03:59:40.852Z,0
2017-12-15T04:00:42.492Z,0
2017-12-15T04:01:44.154Z,0
2017-12-15T04:02:45.804Z,0
2017-12-15T04:03:47.455Z,0
2017-12-15T04:04:49.099Z,0
2017-12-15T04:05:50.761Z,0
2017-12-15T04:06:52.409Z,0
2017-12-15T04:07:54.058Z,0
2017-12-15T04:08:55.703Z,0
2017-12-15T04:09:57.349Z,0
2017-12-15T04:10:58.994Z,0
2017-12-15T04:12:00.642Z,0
2017-12-15T04:13:02.286Z,0
2017-12-15T04:14:03.919Z,0
2017-12-15T04:15:05.568Z,0
2017-12-15T04:16:07.222Z,0
2017-12-15T04:17:08.881Z,0
2017-12-15T04:18:10.547Z,0
2017-12-15T04:19:12.188Z,0
2017-12-15T04:20:13.838Z,0
2017-12-15T04:21:15.494Z,0
2017-12-15T04:22:17.137Z,0
2017-12-15T04:23:18.783Z,0
2017-12-15T04:24:20.424Z,0
2017-12-15T04:25:22.075Z,0
2017-12-15T04:26:23.726Z,0
2017-12-15T04:27:25.372Z,0
2017-12-15T04:28:27.017Z,0
2017-12-15T04:29:28.649Z,0
2017-12-15T04:30:30.306Z,0
2017-12-15T04:31:31.939Z,0
2017-12-15T04:32:33.588Z,0
2017-12-15T04:33:35.237Z,0
2017-12-15T04:34:36.890Z,0
2017-12-15T04:35:38.528Z,0
2017-12-15T04:36:40.182Z,0
2017-12-15T04:37:41.836Z,0
2017-12-15T04:38:43.479Z,0
2017-12-15T04:39:45.123Z,0
2017-12-15T04:40:46.768Z,0
2017-12-15T04:41:48.414Z,0
2017-12-15T04:42:50.056Z,0
2017-12-15T04:43:51.698Z,0
2017-12-15T04:44:53.346Z,0
2017-12-15T04:45:54.992Z,0
2017-12-15T04:46:56.644Z,0
2017-12-15T04:47:58.298Z,0
2017-12-15T04:48:59.944Z,0
2017-12-15T04:50:01.589Z,0
2017-12-15T04:51:03.239Z,0
2017-12-15T04:52:04.920Z,0
2017-12-15T04:53:06.534Z,0
2017-12-15T04:54:08.184Z,0
2017-12-15T04:55:09.837Z,0
2017-12-15T04:56:11.477Z,0
2017-12-15T04:57:13.115Z,0
2017-12-15T04:58:14.767Z,0
2017-12-15T04:59:16.411Z,0
2017-12-15T05:00:18.056Z,0
2017-12-15T05:01:19.703Z,0
2017-12-15T05:02:21.361Z,0
2017-12-15T05:03:23.016Z,0
2017-12-15T05:04:24.662Z,0
2017-12-15T05:05:26.308Z,0
2017-12-15T05:06:27.952Z,0
2017-12-15T05:07:29.600Z,0
2017-12-15T05:08:31.252Z,0
2017-12-15T05:09:32.895Z,0
2017-12-15T05:10:34.550Z,0
2017-12-15T05:11:36.192Z,0
2017-12-15T05:12:37.843Z,0
2017-12-15T05:13:39.484Z,0
2017-12-15T05:14:41.133Z,0
2017-12-15T05:15:42.791Z,0
2017-12-15T05:16:44.438Z,0
2017-12-15T05:17:46.088Z,0
2017-12-15T05:18:47.735Z,0
2017-12-15T05:19:49.385Z,0
2017-12-15T05:20:51.021Z,0
2017-12-15T05:21:52.682Z,0
2017-12-15T05:22:54.325Z,0
2017-12-15T05:23:55.972Z,0
2017-12-15T05:24:57.624Z,0
2017-12-15T05:25:59.266Z,0
2017-12-15T05:27:00.916Z,0
2017-12-15T05:28:02.593Z,0
2017-12-15T05:29:04.239Z,0
2017-12-15T05:30:05.905Z,0
2017-12-15T05:31:08.392Z,0
2017-12-15T05:32:10.042Z,0
2017-12-15T05:33:11.683Z,0
2017-12-15T05:34:13.329Z,0
2017-12-15T05:35:14.981Z,0
2017-12-15T05:36:16.635Z,0
2017-12-15T05:37:18.305Z,0
2017-12-15T05:38:19.954Z,0
2017-12-15T05:39:21.607Z,0
2017-12-15T05:40:23.247Z,0
2017-12-15T05:41:24.892Z,0
2017-12-15T05:42:26.535Z,0
2017-12-15T05:43:28.182Z,0
2017-12-15T05:44:29.830Z,0
2017-12-15T05:45:31.476Z,0
2017-12-15T05:46:33.124Z,0
2017-12-15T05:47:34.804Z,0
2017-12-15T05:48:36.459Z,0
2017-12-15T05:49:38.108Z,0
2017-12-15T05:50:39.758Z,0
2017-12-15T05:51:41.424Z,0
2017-12-15T05:52:43.078Z,0
2017-12-15T05:53:44.731Z,0
2017-12-15T05:54:46.384Z,0
2017-12-15T05:55:48.033Z,0
2017-12-15T05:56:49.683Z,0
2017-12-15T05:57:51.351Z,0
2017-12-15T05:58:52.987Z,0
2017-12-15T05:59:55.043Z,0
2017-12-15T06:00:57.366Z,0
2017-12-15T06:01:58.999Z,0
2017-12-15T06:03:00.657Z,0
2017-12-15T06:04:02.303Z,0
2017-12-15T06:05:03.953Z,0
2017-12-15T06:06:05.604Z,0
2017-12-15T06:07:07.243Z,0
2017-12-15T06:08:09.574Z,0
2017-12-15T06:09:11.228Z,0
2017-12-15T06:10:12.873Z,0
2017-12-15T06:11:14.517Z,0
2017-12-15T06:12:16.168Z,0
2017-12-15T06:13:17.824Z,0
2017-12-15T06:14:19.656Z,0
2017-12-15T06:15:21.308Z,0
2017-12-15T06:16:22.945Z,0
2017-12-15T06:17:24.594Z,0
2017-12-15T06:18:26.291Z,0
2017-12-15T06:19:27.931Z,0
2017-12-15T06:20:29.576Z,0
2017-12-15T06:21:31.219Z,0
2017-12-15T06:22:32.879Z,0
2017-12-15T06:23:34.516Z,0
2017-12-15T06:24:36.168Z,0
2017-12-15T06:25:37.818Z,0
2017-12-15T06:26:39.733Z,0
2017-12-15T06:27:42.273Z,0
2017-12-15T06:28:44.758Z,0
2017-12-15T06:29:46.413Z,0
2017-12-15T06:30:48.068Z,0
2017-12-15T06:31:49.712Z,0
2017-12-15T06:32:51.363Z,0
2017-12-15T06:33:53.011Z,0
2017-12-15T06:34:54.656Z,0
2017-12-15T06:35:56.311Z,0
2017-12-15T06:36:57.955Z,0
2017-12-15T06:37:59.610Z,0
2017-12-15T06:39:01.258Z,0
2017-12-15T06:40:02.907Z,0
2017-12-15T06:41:04.540Z,0
2017-12-15T06:42:06.188Z,0
2017-12-15T06:43:07.838Z,0
2017-12-15T06:44:09.493Z,0
2017-12-15T06:45:11.142Z,0
2017-12-15T06:46:12.783Z,0
2017-12-15T06:47:14.431Z,4
2017-12-15T06:48:16.078Z,4
2017-12-15T06:49:17.724Z,4
2017-12-15T06:50:19.371Z,4
2017-12-15T06:51:21.021Z,4
2017-12-15T06:52:22.671Z,8
2017-12-15T06:53:24.304Z,8
2017-12-15T06:54:25.956Z,8
2017-12-15T06:55:27.650Z,8
2017-12-15T07:01:56.336Z,20
2017-12-15T07:02:57.996Z,24
2017-12-15T07:03:59.626Z,32
2017-12-15T07:05:01.277Z,40
2017-12-15T07:06:02.934Z,44
2017-12-15T07:07:04.575Z,52
2017-12-15T07:08:06.218Z,60
2017-12-15T07:09:07.867Z,72
2017-12-15T07:10:09.508Z,84
2017-12-15T07:11:11.218Z,108
2017-12-15T07:12:12.871Z,128
2017-12-15T07:13:14.502Z,144
2017-12-15T07:14:16.176Z,164
2017-12-15T07:15:17.824Z,184
2017-12-15T07:16:19.494Z,204
2017-12-15T07:17:21.145Z,224
2017-12-15T07:18:22.796Z,244
2017-12-15T07:19:24.438Z,276
2017-12-15T07:20:26.091Z,308
2017-12-15T07:21:27.740Z,340
2017-12-15T07:22:29.386Z,396
2017-12-15T07:23:31.046Z,436
2017-12-15T07:24:32.684Z,476
2017-12-15T07:25:34.333Z,524
2017-12-15T07:26:36.012Z,548
2017-12-15T07:27:37.633Z,580
2017-12-15T07:28:39.306Z,596
2017-12-15T07:29:40.947Z,616
2017-12-15T07:30:42.616Z,668
2017-12-15T07:31:44.270Z,728
2017-12-15T07:32:45.914Z,760
2017-12-15T07:33:47.570Z,808
2017-12-15T07:34:49.217Z,824
2017-12-15T07:35:50.867Z,776
2017-12-15T07:36:52.511Z,764
2017-12-15T07:37:54.164Z,784
2017-12-15T07:38:55.822Z,828
2017-12-15T07:39:57.483Z,852
2017-12-15T07:40:59.128Z,884
2017-12-15T07:42:00.829Z,924
2017-12-15T07:43:02.474Z,908
2017-12-15T07:44:04.133Z,856
2017-12-15T07:45:05.782Z,840
2017-12-15T07:46:07.447Z,824
2017-12-15T07:47:09.093Z,876
2017-12-15T07:48:10.741Z,1052
2017-12-15T07:49:12.395Z,1224
2017-12-15T07:50:14.037Z,1292
2017-12-15T07:51:15.750Z,1264
2017-12-15T07:52:17.336Z,1260
2017-12-15T07:53:18.992Z,1192
2017-12-15T07:54:20.651Z,1076
2017-12-15T07:55:22.306Z,1004
2017-12-15T07:56:23.965Z,1036
2017-12-15T07:57:25.618Z,1016
2017-12-15T07:58:27.268Z,984
2017-12-15T07:59:28.991Z,1104
2017-12-15T08:00:30.659Z,1244
2017-12-15T08:01:32.352Z,1352
2017-12-15T08:02:34.019Z,1580
2017-12-15T08:03:35.701Z,1836
2017-12-15T08:04:37.379Z,1940
2017-12-15T08:05:39.026Z,1888
2017-12-15T08:06:40.680Z,2088
2017-12-15T08:07:42.344Z,2220
2017-12-15T08:08:44.004Z,2048
2017-12-15T08:09:45.653Z,2108
2017-12-15T08:10:47.310Z,2056
2017-12-15T08:11:49.016Z,1952
2017-12-15T08:12:50.626Z,2120
2017-12-15T08:13:52.276Z,2184
2017-12-15T08:14:53.932Z,2164
2017-12-15T08:15:55.593Z,2292
2017-12-15T08:16:57.239Z,2220
2017-12-15T08:17:58.903Z,2152
2017-12-15T08:19:00.549Z,2220
2017-12-15T08:20:02.235Z,2396
2017-12-15T08:21:03.907Z,2472
2017-12-15T08:22:05.565Z,2452
2017-12-15T08:23:07.216Z,2408
2017-12-15T08:24:08.857Z,2456
2017-12-15T08:25:10.510Z,2492
2017-12-15T08:26:12.164Z,2408
2017-12-15T08:27:13.826Z,2396
2017-12-15T08:28:15.488Z,2160
2017-12-15T08:29:17.144Z,2000
2017-12-15T08:30:18.785Z,1840
2017-12-15T08:31:20.477Z,1884
2017-12-15T08:32:22.177Z,2104
2017-12-15T08:33:23.894Z,2216
2017-12-15T08:34:25.589Z,2244
2017-12-15T08:35:27.284Z,2336
2017-12-15T08:36:29.147Z,2496
2017-12-15T08:37:30.895Z,2480
2017-12-15T08:38:32.597Z,2400
2017-12-15T08:39:34.256Z,2384
2017-12-15T08:40:35.915Z,2284
2017-12-15T08:41:37.583Z,2236
2017-12-15T08:42:39.247Z,2148
2017-12-15T08:43:40.947Z,2140
2017-12-15T08:44:42.711Z,2148
2017-12-15T08:45:44.408Z,2124
2017-12-15T08:46:46.118Z,2096
2017-12-15T08:47:47.924Z,2040
2017-12-15T08:48:49.626Z,1964
2017-12-15T08:49:51.289Z,2016
2017-12-15T08:50:52.944Z,2108
2017-12-15T08:51:54.618Z,2076
2017-12-15T08:52:56.285Z,2216
2017-12-15T08:53:57.957Z,2364
2017-12-15T08:54:59.639Z,2416
2017-12-15T08:56:01.297Z,2692
2017-12-15T08:57:02.976Z,3084
2017-12-15T08:58:04.637Z,3824
2017-12-15T08:59:06.279Z,4564
2017-12-15T09:00:07.940Z,4628
2017-12-15T09:01:09.593Z,4480
2017-12-15T09:02:11.272Z,4240
2017-12-15T09:03:12.944Z,3772
2017-12-15T09:04:14.602Z,3480
2017-12-15T09:05:16.256Z,3652
2017-12-15T09:06:17.981Z,3652
2017-12-15T09:07:19.659Z,3596
2017-12-15T09:08:21.342Z,3732
2017-12-15T09:09:23.108Z,3860
2017-12-15T09:10:24.915Z,3804
2017-12-15T09:11:26.718Z,3608
2017-12-15T09:12:28.519Z,3496
2017-12-15T09:13:30.404Z,3692
2017-12-15T09:14:32.203Z,3916
2017-12-15T09:15:33.998Z,4244
2017-12-15T09:16:35.815Z,5012
2017-12-15T09:17:37.604Z,5924
2017-12-15T09:18:39.431Z,6200
2017-12-15T09:19:41.268Z,5572
2017-12-15T09:20:43.016Z,5072
2017-12-15T09:21:44.828Z,4888
2017-12-15T09:22:46.655Z,5128
2017-12-15T09:23:48.430Z,5460
2017-12-15T09:24:50.279Z,6004
2017-12-15T09:25:52.091Z,7024
2017-12-15T09:26:53.908Z,7972
2017-12-15T09:27:55.664Z,8636
2017-12-15T09:28:57.437Z,9312
2017-12-15T09:29:59.213Z,9228
2017-12-15T09:31:01.010Z,8064
2017-12-15T09:32:02.830Z,6960
2017-12-15T09:33:04.593Z,6252
2017-12-15T09:34:06.360Z,6132
2017-12-15T09:35:08.148Z,6188
2017-12-15T09:36:09.868Z,6084
2017-12-15T09:37:11.581Z,5864
2017-12-15T09:38:13.254Z,5600
2017-12-15T09:39:15.096Z,5172
2017-12-15T09:40:16.898Z,4956
2017-12-15T09:41:18.730Z,4680
2017-12-15T09:42:20.555Z,4624
2017-12-15T09:43:22.407Z,4740
2017-12-15T09:44:24.199Z,5104
2017-12-15T09:45:25.968Z,5748
2017-12-15T09:46:27.774Z,6476
2017-12-15T09:47:29.560Z,7212
2017-12-15T09:48:31.307Z,7996
2017-12-15T09:49:33.086Z,8520
2017-12-15T09:50:34.925Z,8172
2017-12-15T09:51:36.725Z,7588
2017-12-15T09:52:38.528Z,7616
2017-12-15T09:53:40.308Z,7628
2017-12-15T09:54:42.135Z,7660
2017-12-15T09:55:43.932Z,7896
2017-12-15T09:56:45.724Z,7788
2017-12-15T09:57:47.517Z,7252
2017-12-15T09:58:49.316Z,6892
2017-12-15T09:59:51.155Z,6976
2017-12-15T10:00:53.017Z,6856
2017-12-15T10:01:54.791Z,6676
2017-12-15T10:02:56.561Z,6700
2017-12-15T10:03:58.374Z,6956
2017-12-15T10:05:00.167Z,7028
2017-12-15T10:06:01.991Z,7172
2017-12-15T10:07:03.752Z,7284
2017-12-15T10:08:05.534Z,7040
2017-12-15T10:09:07.338Z,6736
2017-12-15T10:10:09.148Z,6376
2017-12-15T10:11:10.906Z,6180
2017-12-15T10:12:12.719Z,6084
2017-12-15T10:13:14.534Z,5840
2017-12-15T10:14:16.299Z,5584
2017-12-15T10:15:18.045Z,5324
2017-12-15T10:16:19.856Z,5196
2017-12-15T10:17:21.584Z,5180
2017-12-15T10:18:23.425Z,5120
2017-12-15T10:19:25.277Z,5028
2017-12-15T10:20:27.107Z,4896
2017-12-15T10:21:28.968Z,4864
2017-12-15T10:22:30.858Z,4940
2017-12-15T10:23:32.619Z,5044
2017-12-15T10:24:34.315Z,5196
2017-12-15T10:25:36.014Z,5296
2017-12-15T10:26:37.728Z,5496
2017-12-15T10:27:39.441Z,5712
2017-12-15T10:28:41.148Z,5616
2017-12-15T10:29:44.177Z,5292
2017-12-15T10:30:45.998Z,5044
2017-12-15T10:31:47.797Z,4724
2017-12-15T10:32:49.542Z,4792
2017-12-15T10:33:51.393Z,5236
2017-12-15T10:34:53.173Z,5600
2017-12-15T10:35:54.990Z,5528
2017-12-15T10:36:56.797Z,5748
2017-12-15T10:37:58.653Z,5984
2017-12-15T10:39:00.408Z,6624
2017-12-15T10:40:02.170Z,7320
2017-12-15T10:41:03.964Z,7636
2017-12-15T10:42:05.755Z,8156
2017-12-15T10:43:07.542Z,7728
2017-12-15T10:44:09.313Z,7264
2017-12-15T10:45:11.101Z,7168
2017-12-15T10:46:12.876Z,7336
2017-12-15T10:47:14.646Z,7736
2017-12-15T10:48:16.440Z,8056
2017-12-15T10:49:18.191Z,8936
2017-12-15T10:50:19.952Z,9724
2017-12-15T10:51:21.702Z,9788
2017-12-15T10:52:23.434Z,9568
2017-12-15T10:53:25.288Z,9576
2017-12-15T10:54:27.000Z,9080
2017-12-15T10:55:28.668Z,8760
2017-12-15T11:01:31.136Z,8516
2017-12-15T11:02:32.783Z,9148
2017-12-15T11:03:34.432Z,11584
2017-12-15T11:04:36.093Z,13164
2017-12-15T11:05:37.744Z,17504
2017-12-15T11:06:39.410Z,16512
2017-12-15T11:07:41.063Z,13328
2017-12-15T11:08:42.715Z,12980
2017-12-15T11:09:44.363Z,12872
2017-12-15T11:10:46.008Z,12368
2017-12-15T11:11:47.661Z,11840
2017-12-15T11:12:49.316Z,12036
2017-12-15T11:13:50.979Z,11956
2017-12-15T11:14:52.641Z,11600
2017-12-15T11:15:54.288Z,11672
2017-12-15T11:16:55.938Z,11648
2017-12-15T11:17:57.594Z,11340
2017-12-15T11:18:59.267Z,11048
2017-12-15T11:20:00.911Z,11224
2017-12-15T11:21:02.553Z,11164
2017-12-15T11:22:04.214Z,11076
2017-12-15T11:23:05.873Z,10816
2017-12-15T11:24:07.531Z,11328
2017-12-15T11:25:09.186Z,12120
2017-12-15T11:26:10.841Z,12272
2017-12-15T11:27:12.491Z,11900
2017-12-15T11:28:14.148Z,12236
2017-12-15T11:29:15.810Z,12360
2017-12-15T11:30:17.481Z,11876
2017-12-15T11:31:19.147Z,11440
2017-12-15T11:32:20.797Z,11332
2017-12-15T11:33:22.457Z,11488
2017-12-15T11:34:24.110Z,11360
2017-12-15T11:35:25.782Z,11340
2017-12-15T11:36:27.463Z,11240
2017-12-15T11:37:29.119Z,10904
2017-12-15T11:38:30.767Z,10196
2017-12-15T11:39:32.419Z,9876
2017-12-15T11:40:34.085Z,9848
2017-12-15T11:41:35.734Z,9772
2017-12-15T11:42:37.394Z,10000
2017-12-15T11:43:39.053Z,10292
2017-12-15T11:44:40.712Z,10588
2017-12-15T11:45:42.363Z,10700
2017-12-15T11:46:44.027Z,10128
2017-12-15T11:47:45.682Z,9468
2017-12-15T11:48:47.347Z,8976
2017-12-15T11:49:49.008Z,8724
2017-12-15T11:50:50.682Z,8716
2017-12-15T11:51:52.336Z,8696
2017-12-15T11:52:53.988Z,8600
2017-12-15T11:53:55.654Z,8576
2017-12-15T11:54:57.293Z,8652
2017-12-15T11:55:58.952Z,8640
2017-12-15T11:57:00.614Z,8544
2017-12-15T11:58:02.273Z,8440
2017-12-15T11:59:03.928Z,8332
2017-12-15T12:00:05.586Z,8128
2017-12-15T12:01:07.232Z,7868
2017-12-15T12:02:08.902Z,7852
2017-12-15T12:03:10.553Z,7796
2017-12-15T12:04:12.228Z,7700
2017-12-15T12:05:13.894Z,7700
2017-12-15T12:06:15.557Z,7764
2017-12-15T12:07:17.203Z,7588
2017-12-15T12:08:18.867Z,7572
2017-12-15T12:09:20.518Z,7596
2017-12-15T12:10:22.168Z,7564
2017-12-15T12:11:23.820Z,7480
2017-12-15T12:12:25.480Z,7364
2017-12-15T12:13:27.135Z,7164
2017-12-15T12:14:28.786Z,7076
2017-12-15T12:15:30.440Z,7096
2017-12-15T12:16:32.094Z,6888
2017-12-15T12:17:33.752Z,6588
2017-12-15T12:18:35.415Z,6408
2017-12-15T12:19:37.084Z,6172
2017-12-15T12:20:38.725Z,6000
2017-12-15T12:21:40.391Z,5920
2017-12-15T12:22:42.052Z,5956
2017-12-15T12:23:43.696Z,6116
2017-12-15T12:24:46.276Z,6164
2017-12-15T12:25:47.923Z,6028
2017-12-15T12:26:49.577Z,5856
2017-12-15T12:27:51.230Z,5784
2017-12-15T12:28:52.873Z,5764
2017-12-15T12:29:54.534Z,5768
2017-12-15T12:30:56.234Z,5784
2017-12-15T12:31:57.896Z,5908
2017-12-15T12:32:59.534Z,5904
2017-12-15T12:34:01.192Z,5832
2017-12-15T12:35:02.883Z,5756
2017-12-15T12:36:04.523Z,5612
2017-12-15T12:37:06.171Z,5444
2017-12-15T12:38:07.825Z,5308
2017-12-15T12:39:09.478Z,5284
2017-12-15T12:40:11.130Z,5360
2017-12-15T12:41:12.798Z,5316
2017-12-15T12:42:14.648Z,5280
2017-12-15T12:43:16.323Z,5372
2017-12-15T12:44:18.162Z,5568
2017-12-15T12:45:19.978Z,5820
2017-12-15T12:46:21.638Z,6092
2017-12-15T12:47:23.295Z,6356
2017-12-15T12:48:24.949Z,6588
2017-12-15T12:49:26.603Z,6764
2017-12-15T12:50:28.250Z,6936
2017-12-15T12:51:29.907Z,7028
2017-12-15T12:52:31.557Z,6972
2017-12-15T12:53:33.209Z,6996
2017-12-15T12:54:34.877Z,6916
2017-12-15T12:55:36.545Z,6812
2017-12-15T12:56:38.232Z,6608
2017-12-15T12:57:39.883Z,6508
2017-12-15T12:58:41.586Z,6572
2017-12-15T12:59:43.235Z,6632
2017-12-15T13:00:44.909Z,6544
2017-12-15T13:01:46.566Z,6352
2017-12-15T13:02:48.211Z,6208
2017-12-15T13:03:49.913Z,6208
2017-12-15T13:04:51.558Z,6236
2017-12-15T13:05:53.217Z,6280
2017-12-15T13:06:54.893Z,6336
2017-12-15T13:07:56.542Z,6380
2017-12-15T13:08:58.223Z,6368
2017-12-15T13:10:00.677Z,6392
2017-12-15T13:11:02.335Z,6348
2017-12-15T13:12:03.993Z,6396
2017-12-15T13:13:05.705Z,6432
2017-12-15T13:14:07.358Z,6540
2017-12-15T13:15:09.018Z,6696
2017-12-15T13:16:10.693Z,6756
2017-12-15T13:17:12.335Z,6760
2017-12-15T13:18:13.990Z,6784
2017-12-15T13:19:15.684Z,6868
2017-12-15T13:20:17.340Z,6776
2017-12-15T13:21:18.997Z,6764
2017-12-15T13:22:20.643Z,6832
2017-12-15T13:23:22.324Z,6920
2017-12-15T13:24:23.976Z,6916
2017-12-15T13:25:25.631Z,6876
2017-12-15T13:26:27.282Z,6772
2017-12-15T13:27:28.949Z,6576
2017-12-15T13:28:30.601Z,6720
2017-12-15T13:29:32.252Z,6888
2017-12-15T13:30:33.909Z,7064
2017-12-15T13:31:35.572Z,7060
2017-12-15T13:32:37.253Z,7020
2017-12-15T13:33:38.907Z,6840
2017-12-15T13:34:40.562Z,6536
2017-12-15T13:35:42.221Z,6168
2017-12-15T13:36:43.887Z,5840
2017-12-15T13:37:45.542Z,5528
2017-12-15T13:38:47.197Z,5252
2017-12-15T13:39:48.862Z,5000
2017-12-15T13:40:50.598Z,4788
2017-12-15T13:41:52.251Z,4596
2017-12-15T13:42:53.897Z,4476
2017-12-15T13:43:55.572Z,4436
2017-12-15T13:44:57.243Z,4464
2017-12-15T13:45:58.890Z,4512
2017-12-15T13:47:00.547Z,4468
2017-12-15T13:48:02.204Z,4376
2017-12-15T13:49:03.895Z,4436
2017-12-15T13:50:06.171Z,4516
2017-12-15T13:51:07.833Z,4496
2017-12-15T13:52:09.495Z,4384
2017-12-15T13:53:11.173Z,4288
2017-12-15T13:54:12.829Z,4300
2017-12-15T13:55:14.487Z,4348
2017-12-15T13:56:16.135Z,4360
2017-12-15T13:57:17.817Z,4316
2017-12-15T13:58:19.472Z,4240
2017-12-15T13:59:21.135Z,4088
2017-12-15T14:00:22.789Z,3908
2017-12-15T14:01:24.462Z,3752
2017-12-15T14:02:26.111Z,3536
2017-12-15T14:03:27.754Z,3264
2017-12-15T14:04:29.412Z,3000
2017-12-15T14:05:31.074Z,2792
2017-12-15T14:06:32.735Z,2600
2017-12-15T14:07:34.389Z,2428
2017-12-15T14:08:36.063Z,2288
2017-12-15T14:09:37.702Z,2176
2017-12-15T14:10:39.345Z,2084
2017-12-15T14:11:41.005Z,2016
2017-12-15T14:12:42.668Z,1924
2017-12-15T14:13:44.330Z,1824
2017-12-15T14:14:46.041Z,1720
2017-12-15T14:15:47.687Z,1636
2017-12-15T14:16:49.326Z,1576
2017-12-15T14:17:50.976Z,1524
2017-12-15T14:18:52.632Z,1512
2017-12-15T14:19:54.295Z,1512
2017-12-15T14:20:55.949Z,1516
2017-12-15T14:21:57.632Z,1508
2017-12-15T14:22:59.293Z,1484
2017-12-15T14:24:00.965Z,1432
2017-12-15T14:25:02.621Z,1380
2017-12-15T14:26:04.280Z,1336
2017-12-15T14:27:05.944Z,1304
2017-12-15T14:28:07.606Z,1276
2017-12-15T14:29:09.255Z,1244
2017-12-15T14:30:10.921Z,1200
2017-12-15T14:31:12.588Z,1168
2017-12-15T14:32:14.236Z,1152
2017-12-15T14:33:15.920Z,1156
2017-12-15T14:34:17.567Z,1164
2017-12-15T14:35:19.230Z,1156
2017-12-15T14:36:20.882Z,1132
2017-12-15T14:37:22.552Z,1084
2017-12-15T14:38:24.222Z,1048